Time;durP1;ratioP1;P1;durP2;ratioP2;P2;SDS_P1;SDS_P2;PMS_P1;PMS_P2;Temp;Humidity;BMP_temperature;BMP_pressure;BME280_temperature;BME280_humidity;BME280_pressure;Samples;Min_cycle;Max_cycle;Signal;HPM_P1;HPM_P2
2024/04/20 00:00:20;;;;;;;1.42;1.33;;;;;;;5.51;86.37;98020.41;5366692;26;20008;-86
2024/04/20 00:02:45;;;;;;;1.80;1.50;;;;;;;5.58;85.01;98026.38;5377647;26;19996;-87
2024/04/20 00:05:11;;;;;;;2.58;1.90;;;;;;;5.62;86.07;98037.28;5381701;26;20046;-87
2024/04/20 00:07:36;;;;;;;1.90;1.73;;;;;;;5.10;86.49;98024.09;5382524;26;20048;-86
2024/04/20 00:10:02;;;;;;;1.70;1.60;;;;;;;4.96;86.74;97993.66;5380339;26;20015;-86
2024/04/20 00:12:29;;;;;;;1.60;1.50;;;;;;;5.38;86.40;98030.47;5380439;26;20000;-87
2024/04/20 00:14:55;;;;;;;1.70;1.60;;;;;;;5.51;84.68;98038.94;5374828;26;20008;-87
2024/04/20 00:17:20;;;;;;;2.78;1.80;;;;;;;4.95;85.21;97964.81;5352111;26;20011;-87
2024/04/20 00:19:45;;;;;;;2.55;1.55;;;;;;;5.35;85.71;98052.94;5376762;26;20022;-87
2024/04/20 00:22:12;;;;;;;2.00;1.90;;;;;;;5.22;84.67;98027.50;5382231;26;20069;-86
2024/04/20 00:24:38;;;;;;;1.63;1.52;;;;;;;5.17;84.28;97971.06;5376099;26;20000;-86
2024/04/20 00:27:05;;;;;;;2.05;1.95;;;;;;;4.71;85.88;97968.53;5374652;26;20009;-88
2024/04/20 00:29:31;;;;;;;1.65;1.52;;;;;;;5.62;84.96;98064.56;5376045;26;19997;-86
2024/04/20 00:31:57;;;;;;;1.80;1.63;;;;;;;5.21;84.23;98047.09;5349128;26;20634;-87
2024/04/20 00:34:22;;;;;;;1.98;1.75;;;;;;;5.27;85.35;98011.75;5375007;26;20735;-87
2024/04/20 00:36:51;;;;;;;1.50;1.40;;;;;;;5.30;85.90;98066.03;5321370;26;20004;-87
2024/04/20 00:39:17;;;;;;;1.80;1.70;;;;;;;5.84;84.42;98073.47;5362119;26;20016;-87
2024/04/20 00:41:47;;;;;;;1.92;1.75;;;;;;;5.91;83.97;98084.75;5376310;26;20374;-88
2024/04/20 00:44:12;;;;;;;2.35;2.03;;;;;;;5.75;83.53;98058.16;5377790;26;20087;-87
2024/04/20 00:46:38;;;;;;;2.38;2.17;;;;;;;5.73;84.37;98081.44;5350810;26;20529;-87
2024/04/20 00:49:03;;;;;;;1.88;1.77;;;;;;;5.12;85.02;98019.38;5376099;26;19996;-88
2024/04/20 00:51:29;;;;;;;2.35;2.13;;;;;;;5.19;84.16;97980.38;5375258;26;20040;-87
2024/04/20 00:53:56;;;;;;;2.10;2.00;;;;;;;5.73;84.48;98089.38;5372589;26;20631;-87
2024/04/20 00:56:22;;;;;;;1.80;1.70;;;;;;;5.19;83.83;97992.81;5369873;26;20015;-87
2024/04/20 00:58:47;;;;;;;2.05;1.95;;;;;;;5.61;84.48;98093.91;5358816;26;19996;-87
2024/04/20 01:01:13;;;;;;;2.08;1.88;;;;;;;5.03;84.07;98031.34;5377003;26;20019;-86
2024/04/20 01:03:38;;;;;;;2.60;2.40;;;;;;;4.13;84.60;97908.63;5346498;26;20015;-87
2024/04/20 01:06:04;;;;;;;2.83;2.63;;;;;;;5.45;85.98;98115.81;5347522;26;20013;-87
2024/04/20 01:08:30;;;;;;;2.13;1.92;;;;;;;5.64;84.95;98086.31;5323731;26;20000;-87
2024/04/20 01:10:56;;;;;;;2.45;2.25;;;;;;;5.67;84.91;98111.50;5370732;26;20001;-87
2024/04/20 01:13:29;;;;;;;2.60;2.40;;;;;;;5.59;84.12;98117.97;5369764;26;19996;-87
2024/04/20 01:15:54;;;;;;;2.97;2.63;;;;;;;5.52;84.88;98112.00;5372712;26;20010;-87
2024/04/20 01:18:20;;;;;;;2.30;2.10;;;;;;;5.54;84.88;98095.88;5374146;26;20016;-87
2024/04/20 01:20:46;;;;;;;2.50;2.30;;;;;;;5.68;84.92;98135.09;5318286;26;20533;-86
2024/04/20 01:23:12;;;;;;;2.38;2.25;;;;;;;5.78;84.54;98142.44;5376627;26;20042;-87
2024/04/20 01:25:55;;;;;;;2.60;2.40;;;;;;;5.62;85.25;98145.81;5378385;26;20000;-86
2024/04/20 01:28:21;;;;;;;2.90;2.70;;;;;;;5.11;84.55;98115.63;5375276;26;19997;-86
2024/04/20 01:30:46;;;;;;;2.95;2.72;;;;;;;4.93;86.31;98102.53;5376027;26;20378;-86
2024/04/20 01:33:12;;;;;;;2.60;2.40;;;;;;;5.01;86.06;98151.63;5378128;26;20004;-86
2024/04/20 01:35:41;;;;;;;3.33;2.33;;;;;;;4.82;86.83;98086.69;5372962;26;20356;-86
2024/04/20 01:38:07;;;;;;;2.88;2.67;;;;;;;4.93;86.68;98123.69;5378757;26;20012;-86
2024/04/20 01:40:33;;;;;;;2.45;2.28;;;;;;;5.17;87.13;98150.94;5373891;26;20018;-87
2024/04/20 01:42:58;;;;;;;2.33;2.10;;;;;;;5.34;86.48;98178.31;5351240;26;20065;-86
2024/04/20 01:45:24;;;;;;;2.40;2.20;;;;;;;4.38;85.73;98051.03;5377793;26;20009;-87
2024/04/20 01:47:49;;;;;;;2.33;2.22;;;;;;;5.12;87.11;98180.72;5382653;26;20010;-86
2024/04/20 01:50:16;;;;;;;2.45;2.25;;;;;;;5.16;86.80;98160.72;5326854;26;20004;-86
2024/04/20 01:52:42;;;;;;;2.13;2.00;;;;;;;4.63;85.56;98064.03;5374904;26;20379;-86
2024/04/20 01:55:07;;;;;;;1.83;1.73;;;;;;;5.43;86.05;98184.84;5377588;26;20047;-87
2024/04/20 01:57:33;;;;;;;1.77;1.67;;;;;;;4.36;86.22;98090.91;5376190;26;19996;-87
2024/04/20 01:59:58;;;;;;;1.95;1.83;;;;;;;4.53;85.54;98040.81;5345698;26;20480;-86
2024/04/20 02:02:24;;;;;;;2.17;1.98;;;;;;;4.96;84.84;98128.50;5374144;26;19996;-87
2024/04/20 02:04:49;;;;;;;2.55;1.73;;;;;;;4.19;86.45;98112.91;5370294;26;20020;-87
2024/04/20 02:07:15;;;;;;;1.85;1.75;;;;;;;5.41;86.13;98210.75;5377306;26;20043;-86
2024/04/20 02:09:41;;;;;;;2.00;1.85;;;;;;;5.23;85.72;98216.16;5371115;26;20005;-86
2024/04/20 02:12:07;;;;;;;5.85;1.70;;;;;;;5.15;85.52;98174.16;5369436;26;19996;-87
2024/04/20 02:14:32;;;;;;;2.20;1.80;;;;;;;5.19;85.63;98192.00;5366955;26;20031;-87
2024/04/20 02:16:58;;;;;;;4.15;2.25;;;;;;;5.38;85.62;98226.25;5366075;26;20014;-87
2024/04/20 02:19:23;;;;;;;3.45;2.20;;;;;;;5.30;85.46;98232.72;5367636;26;20004;-86
2024/04/20 02:21:48;;;;;;;2.47;2.28;;;;;;;5.15;86.54;98238.47;5367765;26;20005;-87
2024/04/20 02:24:14;;;;;;;4.20;3.22;;;;;;;4.65;86.27;98160.56;5347378;26;20503;-87
2024/04/20 02:26:39;;;;;;;3.38;2.92;;;;;;;4.85;85.93;98227.13;5375201;26;20046;-87
2024/04/20 02:29:04;;;;;;;3.33;2.88;;;;;;;5.16;85.56;98244.53;5345735;26;20044;-87
2024/04/20 02:31:30;;;;;;;3.47;3.17;;;;;;;4.99;86.14;98262.09;5374582;26;20024;-87
2024/04/20 02:33:56;;;;;;;3.00;2.70;;;;;;;5.19;85.58;98244.91;5373458;26;20004;-87
2024/04/20 02:36:24;;;;;;;4.18;3.22;;;;;;;5.47;85.05;98275.16;5310319;26;20001;-87
2024/04/20 02:38:50;;;;;;;5.30;2.90;;;;;;;5.25;84.62;98257.22;5372226;26;20001;-87
2024/04/20 02:41:15;;;;;;;4.28;3.47;;;;;;;4.77;84.52;98274.22;5376678;26;20080;-86
2024/04/20 02:43:40;;;;;;;3.67;3.25;;;;;;;5.14;85.53;98271.22;5321676;26;20004;-87
2024/04/20 02:46:06;;;;;;;6.60;3.70;;;;;;;5.22;85.96;98284.09;5377384;26;19996;-87
2024/04/20 02:48:31;;;;;;;5.40;3.40;;;;;;;5.15;85.00;98286.06;5377446;26;20019;-86
2024/04/20 02:50:57;;;;;;;4.38;3.75;;;;;;;4.96;85.25;98238.75;5379267;26;20008;-87
2024/04/20 02:53:22;;;;;;;4.85;4.35;;;;;;;5.25;84.77;98288.16;5376585;26;20000;-87
2024/04/20 02:55:47;;;;;;;6.05;3.47;;;;;;;5.05;86.12;98293.75;5368793;26;19997;-87
2024/04/20 02:58:13;;;;;;;6.10;3.55;;;;;;;5.32;84.63;98265.03;5370986;26;20028;-87
2024/04/20 03:00:38;;;;;;;4.30;3.85;;;;;;;4.85;84.16;98194.63;5343584;26;20690;-87
2024/04/20 03:03:04;;;;;;;5.82;3.20;;;;;;;5.22;83.50;98264.81;5377991;26;20016;-87
2024/04/20 03:05:29;;;;;;;4.30;3.90;;;;;;;5.17;84.16;98301.72;5376494;26;20000;-87
2024/04/20 03:07:55;;;;;;;4.18;3.78;;;;;;;5.24;83.90;98287.34;5376837;26;20000;-87
2024/04/20 03:10:20;;;;;;;4.10;3.70;;;;;;;5.18;83.99;98298.03;5377430;26;20004;-87
2024/04/20 03:12:45;;;;;;;4.28;3.17;;;;;;;5.05;83.64;98269.13;5374997;26;20000;-87
2024/04/20 03:15:11;;;;;;;3.58;3.20;;;;;;;5.00;83.39;98282.25;5340115;26;20040;-87
2024/04/20 03:17:36;;;;;;;7.47;3.63;;;;;;;5.05;82.99;98299.03;5375328;26;20007;-87
2024/04/20 03:20:02;;;;;;;5.47;3.83;;;;;;;4.75;83.26;98284.22;5372141;26;20004;-87
2024/04/20 03:22:27;;;;;;;5.57;3.67;;;;;;;4.21;83.84;98208.56;5383743;26;20043;-87
2024/04/20 03:24:53;;;;;;;7.28;3.67;;;;;;;4.94;84.37;98330.72;5370758;26;20001;-86
2024/04/20 03:27:18;;;;;;;5.43;3.72;;;;;;;4.71;83.71;98334.09;5370094;26;20648;-86
2024/04/20 03:29:44;;;;;;;5.60;3.75;;;;;;;4.17;84.29;98228.53;5369854;26;20005;-87
2024/04/20 03:32:09;;;;;;;4.55;3.63;;;;;;;4.82;84.54;98338.63;5375187;26;20000;-86
2024/04/20 03:34:35;;;;;;;4.68;3.70;;;;;;;4.82;83.39;98343.91;5371371;26;20004;-87
2024/04/20 03:37:00;;;;;;;4.28;3.53;;;;;;;4.85;84.35;98348.75;5379029;26;20008;-86
2024/04/20 03:39:25;;;;;;;3.38;3.08;;;;;;;4.94;83.41;98352.69;5349506;26;20015;-87
2024/04/20 03:41:51;;;;;;;7.13;4.07;;;;;;;4.54;83.28;98360.31;5381380;26;20012;-86
2024/04/20 03:44:16;;;;;;;6.50;3.92;;;;;;;4.17;84.70;98363.19;5379795;26;20072;-87
2024/04/20 03:46:42;;;;;;;5.07;4.05;;;;;;;4.51;83.98;98379.28;5375911;26;20001;-87
2024/04/20 03:49:07;;;;;;;6.13;3.55;;;;;;;4.46;84.72;98359.81;5344584;26;20089;-86
2024/04/20 03:51:33;;;;;;;6.25;3.47;;;;;;;3.93;84.35;98340.28;5374553;26;20529;-86
2024/04/20 03:53:59;;;;;;;4.65;3.58;;;;;;;4.35;85.55;98379.84;5382855;26;20015;-87
2024/04/20 03:56:25;;;;;;;5.40;3.85;;;;;;;4.34;83.77;98399.38;5376405;26;20779;-87
2024/04/20 03:58:51;;;;;;;4.88;3.45;;;;;;;4.62;84.90;98376.91;5371419;26;20018;-86
2024/04/20 04:01:16;;;;;;;9.65;4.28;;;;;;;3.98;83.43;98319.31;5349444;26;20001;-86
2024/04/20 04:03:42;;;;;;;4.22;3.38;;;;;;;4.57;86.30;98425.94;5370162;26;20001;-87
2024/04/20 04:06:07;;;;;;;5.65;3.75;;;;;;;4.70;83.90;98392.47;5380045;26;20015;-86
2024/04/20 04:08:33;;;;;;;4.43;4.03;;;;;;;4.52;83.99;98402.00;5381010;26;19996;-87
2024/04/20 04:10:58;;;;;;;5.07;3.55;;;;;;;3.81;84.21;98308.53;5380339;26;20017;-86
2024/04/20 04:13:23;;;;;;;6.57;3.83;;;;;;;4.48;82.73;98437.84;5385214;26;20024;-87
2024/04/20 04:15:49;;;;;;;5.45;3.88;;;;;;;4.69;84.59;98438.44;5345230;26;20008;-87
2024/04/20 04:18:15;;;;;;;4.18;3.78;;;;;;;4.87;82.85;98422.56;5376526;26;19999;-87
2024/04/20 04:20:40;;;;;;;6.20;3.50;;;;;;;4.86;82.79;98418.28;5320478;26;20008;-87
2024/04/20 04:23:06;;;;;;;8.93;3.63;;;;;;;4.91;81.95;98413.97;5366777;26;20011;-87
2024/04/20 04:25:32;;;;;;;6.78;4.10;;;;;;;5.29;81.83;98458.63;5378718;26;20018;-87
2024/04/20 04:27:58;;;;;;;5.68;3.55;;;;;;;5.04;82.38;98457.94;5375241;26;20041;-87
2024/04/20 04:30:24;;;;;;;5.20;4.38;;;;;;;4.52;83.38;98462.00;5375945;26;20679;-87
2024/04/20 04:32:50;;;;;;;4.95;3.90;;;;;;;4.38;82.76;98391.81;5364981;26;20005;-87
2024/04/20 04:35:16;;;;;;;6.10;4.28;;;;;;;4.65;83.02;98453.13;5368651;26;20080;-87
2024/04/20 04:37:41;;;;;;;5.63;4.20;;;;;;;4.88;82.80;98463.81;5349614;26;20015;-87
2024/04/20 04:40:07;;;;;;;7.20;3.53;;;;;;;5.06;83.21;98483.16;5381888;26;19997;-87
2024/04/20 04:42:32;;;;;;;6.32;4.03;;;;;;;4.91;82.50;98466.03;5375081;26;20034;-86
2024/04/20 04:44:58;;;;;;;3.83;3.42;;;;;;;4.94;82.73;98469.03;5363188;26;20122;-87
2024/04/20 04:47:24;;;;;;;4.53;4.10;;;;;;;5.06;82.25;98474.41;5378547;26;20000;-87
2024/04/20 04:49:50;;;;;;;7.40;4.13;;;;;;;4.85;82.00;98459.00;5380329;26;20348;-87
2024/04/20 04:52:15;;;;;;;4.40;3.85;;;;;;;5.16;82.23;98509.06;5373521;26;20004;-87
2024/04/20 04:54:41;;;;;;;3.92;3.50;;;;;;;5.27;82.12;98516.25;5374045;26;20011;-86
2024/04/20 04:57:06;;;;;;;4.75;3.97;;;;;;;4.94;81.96;98463.75;5374055;26;20043;-87
2024/04/20 04:59:32;;;;;;;5.63;4.22;;;;;;;5.19;82.40;98519.22;5370724;26;20019;-87
2024/04/20 05:01:57;;;;;;;4.95;3.75;;;;;;;4.69;82.38;98525.66;5342209;26;19996;-87
2024/04/20 05:04:22;;;;;;;5.53;4.40;;;;;;;4.85;82.90;98541.75;5376757;26;19996;-87
2024/04/20 05:06:48;;;;;;;9.25;4.65;;;;;;;4.14;82.61;98446.31;5369973;26;20007;-86
2024/04/20 05:09:14;;;;;;;5.82;4.93;;;;;;;4.37;84.19;98538.13;5370916;26;20341;-87
2024/04/20 05:11:39;;;;;;;4.25;3.85;;;;;;;3.94;84.76;98481.81;5318211;26;20078;-86
2024/04/20 05:14:05;;;;;;;7.70;4.93;;;;;;;4.13;83.41;98509.91;5378609;26;20004;-87
2024/04/20 05:16:30;;;;;;;6.30;4.32;;;;;;;4.50;84.81;98507.13;5378780;26;20065;-86
2024/04/20 05:18:55;;;;;;;7.15;4.82;;;;;;;4.63;83.62;98555.63;5343432;26;20032;-86
2024/04/20 05:21:21;;;;;;;6.65;4.88;;;;;;;4.69;83.03;98566.13;5381499;26;20001;-86
2024/04/20 05:23:47;;;;;;;10.35;4.72;;;;;;;4.89;83.30;98535.00;5371401;26;20015;-87
2024/04/20 05:26:13;;;;;;;4.82;4.32;;;;;;;5.10;82.11;98558.38;5370063;26;20068;-86
2024/04/20 05:28:38;;;;;;;7.15;4.28;;;;;;;5.04;82.10;98564.56;5376469;26;20455;-87
2024/04/20 05:31:04;;;;;;;6.85;4.13;;;;;;;5.13;82.69;98586.22;5372565;26;20378;-86
2024/04/20 05:33:29;;;;;;;8.90;4.32;;;;;;;4.76;82.14;98521.13;5347215;26;19996;-87
2024/04/20 05:35:54;;;;;;;5.68;4.28;;;;;;;5.29;81.50;98572.41;5348351;26;20028;-87
2024/04/20 05:38:20;;;;;;;4.25;3.83;;;;;;;5.40;82.00;98595.47;5369466;26;20008;-87
2024/04/20 05:40:45;;;;;;;7.43;5.45;;;;;;;4.82;81.28;98575.75;5379921;26;20004;-87
2024/04/20 05:43:11;;;;;;;6.35;4.15;;;;;;;4.98;81.57;98586.56;5345146;26;20475;-86
2024/04/20 05:45:38;;;;;;;5.07;4.45;;;;;;;5.18;81.79;98581.06;5345756;26;20004;-87
2024/04/20 05:48:03;;;;;;;6.38;4.88;;;;;;;5.07;81.90;98579.16;5396662;26;20008;-86
2024/04/20 05:50:29;;;;;;;6.03;4.65;;;;;;;4.76;81.27;98592.50;5376215;26;20004;-87
2024/04/20 05:52:55;;;;;;;5.43;3.85;;;;;;;5.34;81.59;98604.31;5377991;26;20004;-87
2024/04/20 05:55:20;;;;;;;5.05;4.18;;;;;;;5.18;81.52;98594.28;5349901;26;20000;-87
2024/04/20 05:57:46;;;;;;;5.25;3.85;;;;;;;5.17;81.23;98590.88;5332282;26;19996;-86
2024/04/20 06:00:11;;;;;;;4.78;3.90;;;;;;;5.49;80.82;98622.44;5373792;26;20044;-86
2024/04/20 06:02:37;;;;;;;8.27;4.03;;;;;;;5.50;81.12;98638.13;5375210;26;20016;-87
2024/04/20 06:05:02;;;;;;;5.03;3.72;;;;;;;5.52;81.49;98638.72;5371830;26;20000;-87
2024/04/20 06:07:29;;;;;;;4.68;4.20;;;;;;;5.05;81.08;98627.00;5377986;26;20011;-86
2024/04/20 06:09:54;;;;;;;5.28;3.75;;;;;;;5.27;81.15;98630.84;5380983;26;20000;-87
2024/04/20 06:12:20;;;;;;;4.07;3.67;;;;;;;5.00;80.61;98618.88;5375109;26;20069;-87
2024/04/20 06:14:48;;;;;;;6.15;3.60;;;;;;;5.29;81.87;98617.38;5369630;26;20001;-87
2024/04/20 06:17:14;;;;;;;8.02;4.53;;;;;;;5.57;81.24;98643.34;5381876;26;20011;-87
2024/04/20 06:19:40;;;;;;;3.72;3.35;;;;;;;5.33;80.54;98602.69;5376307;26;20004;-87
2024/04/20 06:22:05;;;;;;;3.92;3.55;;;;;;;5.54;81.27;98630.53;5382368;26;20029;-87
2024/04/20 06:24:31;;;;;;;8.25;4.35;;;;;;;5.57;80.55;98652.06;5378479;26;20001;-87
2024/04/20 06:26:56;;;;;;;6.57;3.72;;;;;;;5.46;80.76;98628.19;5354471;26;19996;-87
2024/04/20 06:29:23;;;;;;;5.50;4.32;;;;;;;5.78;81.06;98672.81;5375182;26;20099;-86
2024/04/20 06:31:50;;;;;;;7.05;4.55;;;;;;;5.58;81.26;98674.88;5374872;26;20007;-87
2024/04/20 06:34:15;;;;;;;5.10;4.55;;;;;;;5.70;81.25;98670.47;5380789;26;20000;-87
2024/04/20 06:36:41;;;;;;;6.32;4.82;;;;;;;5.75;81.13;98689.16;5378062;26;20007;-87
2024/04/20 06:39:07;;;;;;;9.77;5.40;;;;;;;5.57;81.10;98678.56;5382814;26;20086;-86
2024/04/20 06:41:32;;;;;;;5.85;4.38;;;;;;;5.59;81.45;98683.66;5384762;26;20024;-87
2024/04/20 06:43:59;;;;;;;8.88;4.53;;;;;;;5.55;81.01;98691.19;5375277;26;20008;-87
2024/04/20 06:46:26;;;;;;;4.55;4.10;;;;;;;5.63;80.92;98695.41;5386544;26;19992;-87
2024/04/20 06:48:53;;;;;;;6.88;4.40;;;;;;;5.58;80.88;98698.72;5377894;26;20008;-86
2024/04/20 06:51:19;;;;;;;7.50;4.90;;;;;;;5.27;81.87;98681.09;5383852;26;20004;-87
2024/04/20 06:53:45;;;;;;;4.03;3.63;;;;;;;5.46;80.61;98684.56;5387551;26;20010;-87
2024/04/20 06:56:12;;;;;;;5.47;3.92;;;;;;;5.48;81.08;98697.59;5382050;26;20028;-87
2024/04/20 06:58:41;;;;;;;5.93;4.10;;;;;;;5.51;80.87;98675.97;5382705;26;20008;-87
2024/04/20 07:01:07;;;;;;;4.78;3.95;;;;;;;5.61;80.20;98700.94;5380948;26;19996;-87
2024/04/20 07:03:35;;;;;;;7.95;4.10;;;;;;;5.33;80.03;98674.94;5408689;26;20089;-86
2024/04/20 07:06:01;;;;;;;7.45;3.97;;;;;;;5.17;79.75;98670.22;5377611;26;20001;-87
2024/04/20 07:08:28;;;;;;;3.72;3.28;;;;;;;5.38;81.48;98682.22;5383078;26;20015;-87
2024/04/20 07:11:01;;;;;;;5.43;3.92;;;;;;;5.43;80.50;98695.63;5353737;26;20008;-88
2024/04/20 07:13:36;;;;;;;5.55;3.33;;;;;;;5.24;80.26;98668.31;5376593;26;20029;-87
2024/04/20 07:16:02;;;;;;;;;;;;;;;5.86;79.51;98725.53;5366624;26;20012;-87
2024/04/20 07:18:28;;;;;;;7.13;3.97;;;;;;;5.41;80.13;98683.63;5369198;26;19933;-87
2024/04/20 07:21:01;;;;;;;10.82;4.53;;;;;;;5.31;80.16;98676.19;5376408;26;20387;-87
2024/04/20 07:23:26;;;;;;;4.30;3.60;;;;;;;5.27;79.38;98624.72;5375245;26;20778;-87
2024/04/20 07:26:03;;;;;;;3.80;3.28;;;;;;;5.45;79.27;98669.75;5368479;26;20008;-87
2024/04/20 07:28:29;;;;;;;4.85;3.25;;;;;;;5.70;78.87;98723.41;5372437;26;20046;-86
2024/04/20 07:30:54;;;;;;;5.40;3.28;;;;;;;5.43;79.51;98716.78;5378997;26;20036;-87
2024/04/20 07:33:20;;;;;;;4.40;2.80;;;;;;;5.80;79.05;98738.81;5380237;26;20050;-88
2024/04/20 07:35:45;;;;;;;5.53;2.85;;;;;;;5.20;79.79;98655.72;5384132;26;20015;-88
2024/04/20 07:38:11;;;;;;;5.55;3.13;;;;;;;5.78;80.73;98746.97;5328955;26;20344;-87
2024/04/20 07:40:36;;;;;;;4.82;2.80;;;;;;;5.72;80.04;98755.00;5382558;26;19996;-87
2024/04/20 07:43:02;;;;;;;4.82;3.05;;;;;;;5.53;79.56;98653.56;5380560;26;20012;-87
2024/04/20 07:45:27;;;;;;;3.30;2.38;;;;;;;6.31;78.58;98768.38;5382175;26;20069;-87
2024/04/20 07:47:53;;;;;;;2.85;2.65;;;;;;;6.17;78.03;98727.19;5380927;26;20022;-87
2024/04/20 07:50:18;;;;;;;4.05;2.25;;;;;;;6.26;78.25;98755.00;5346620;26;20015;-87
2024/04/20 07:52:44;;;;;;;3.95;2.30;;;;;;;6.15;77.08;98739.03;5345539;26;20051;-87
2024/04/20 07:55:10;;;;;;;3.38;2.15;;;;;;;5.59;76.57;98721.50;5375110;26;20487;-87
2024/04/20 07:57:35;;;;;;;2.65;2.38;;;;;;;5.97;77.80;98740.66;5371625;26;20059;-87
2024/04/20 08:00:02;;;;;;;3.85;2.30;;;;;;;6.36;76.89;98778.31;5371055;26;19996;-86
2024/04/20 08:02:27;;;;;;;6.30;2.33;;;;;;;6.66;76.80;98785.25;5377236;26;20000;-86
2024/04/20 08:04:53;;;;;;;3.42;2.13;;;;;;;6.48;76.80;98797.75;5372164;26;19996;-87
2024/04/20 08:07:18;;;;;;;4.25;2.30;;;;;;;6.56;76.40;98792.94;5376279;26;20000;-86
2024/04/20 08:09:43;;;;;;;3.53;2.33;;;;;;;6.38;75.39;98761.16;5382061;26;19996;-87
2024/04/20 08:12:09;;;;;;;4.50;2.28;;;;;;;6.04;75.93;98741.41;5346785;26;20014;-87
2024/04/20 08:14:35;;;;;;;3.90;2.05;;;;;;;5.80;76.18;98691.94;5369759;26;20004;-87
2024/04/20 08:17:00;;;;;;;2.80;2.05;;;;;;;6.61;75.19;98808.19;5346360;26;20012;-86
2024/04/20 08:19:26;;;;;;;2.95;2.10;;;;;;;6.13;75.01;98749.06;5373381;26;20011;-87
2024/04/20 08:21:51;;;;;;;3.45;2.22;;;;;;;6.41;74.86;98804.97;5376707;26;20000;-87
2024/04/20 08:24:17;;;;;;;3.30;2.05;;;;;;;6.35;75.01;98827.88;5349013;26;20253;-87
2024/04/20 08:26:42;;;;;;;2.60;1.83;;;;;;;6.48;75.29;98826.91;5379188;26;20514;-87
2024/04/20 08:29:07;;;;;;;2.33;1.48;;;;;;;6.19;72.39;98838.25;5371517;26;20466;-87
2024/04/20 08:31:33;;;;;;;4.65;1.90;;;;;;;6.11;74.18;98793.50;5372731;26;20011;-87
2024/04/20 08:33:58;;;;;;;2.28;1.80;;;;;;;6.57;73.88;98844.16;5372049;26;20004;-87
2024/04/20 08:36:24;;;;;;;1.70;1.60;;;;;;;6.45;73.69;98836.13;5372312;26;20047;-87
2024/04/20 08:38:49;;;;;;;2.15;1.65;;;;;;;6.05;70.56;98842.88;5384037;26;20043;-87
2024/04/20 08:41:17;;;;;;;2.33;1.58;;;;;;;6.00;70.87;98822.38;5365689;26;20077;-87
2024/04/20 08:43:43;;;;;;;2.97;1.48;;;;;;;6.45;73.11;98851.22;5313442;26;20047;-87
2024/04/20 08:46:14;;;;;;;4.60;1.63;;;;;;;6.45;73.31;98845.91;5375396;26;20077;-87
2024/04/20 08:48:41;;;;;;;3.15;1.52;;;;;;;6.36;73.19;98820.72;5371495;26;20018;-86
2024/04/20 08:51:08;;;;;;;2.60;1.80;;;;;;;6.73;73.36;98849.63;5401976;26;20008;-87
2024/04/20 08:53:34;;;;;;;3.05;1.60;;;;;;;6.50;72.17;98867.28;5348225;26;20011;-87
2024/04/20 08:56:06;;;;;;;3.55;1.40;;;;;;;6.45;73.46;98820.22;5371078;26;19997;-87
2024/04/20 08:58:32;;;;;;;1.58;1.33;;;;;;;5.42;66.77;98744.25;5372919;26;19997;-87
2024/04/20 09:01:00;;;;;;;1.45;1.33;;;;;;;6.25;66.99;98871.81;5374369;26;20007;-87
2024/04/20 09:03:27;;;;;;;2.97;1.67;;;;;;;6.93;71.80;98865.28;5401918;26;20004;-87
2024/04/20 09:05:55;;;;;;;2.70;1.40;;;;;;;6.97;71.45;98869.13;5369683;26;20011;-87
2024/04/20 09:08:21;;;;;;;2.22;1.15;;;;;;;6.76;68.70;98861.66;5368688;26;20015;-87
2024/04/20 09:10:47;;;;;;;1.67;1.30;;;;;;;6.03;65.93;98837.81;5377647;26;20011;-86
2024/04/20 09:13:15;;;;;;;1.40;1.30;;;;;;;6.47;70.44;98812.03;5373453;26;20446;-87
2024/04/20 09:15:45;;;;;;;3.45;1.42;;;;;;;6.88;68.61;98883.72;5375455;26;20020;-86
2024/04/20 09:18:10;;;;;;;1.75;1.63;;;;;;;6.56;68.67;98808.88;5366954;26;20008;-87
2024/04/20 09:20:36;;;;;;;2.20;1.45;;;;;;;7.07;69.14;98893.28;5318926;26;20000;-86
2024/04/20 09:23:08;;;;;;;2.05;1.35;;;;;;;7.23;69.03;98873.28;5371879;26;20512;-86
2024/04/20 09:25:38;;;;;;;0.95;0.95;;;;;;;7.28;67.45;98887.47;5375213;26;20008;-86
2024/04/20 09:28:07;;;;;;;4.63;1.10;;;;;;;7.11;67.41;98846.69;5377222;26;20325;-86
2024/04/20 09:30:33;;;;;;;3.15;1.38;;;;;;;7.06;65.30;98864.31;5375330;26;20000;-86
2024/04/20 09:32:58;;;;;;;3.03;0.95;;;;;;;7.23;66.66;98855.47;5368012;26;20807;-86
2024/04/20 09:35:27;;;;;;;1.70;0.90;;;;;;;7.43;66.06;98868.47;5365673;26;20003;-85
2024/04/20 09:37:52;;;;;;;3.47;1.48;;;;;;;7.14;66.04;98840.13;5369580;26;20000;-86
2024/04/20 09:40:18;;;;;;;1.50;1.30;;;;;;;7.31;65.90;98841.09;5370426;26;21348;-87
2024/04/20 09:42:46;;;;;;;3.67;1.23;;;;;;;7.42;65.90;98877.47;5313934;26;22133;-87
2024/04/20 09:45:12;;;;;;;3.38;1.23;;;;;;;7.37;64.53;98880.00;5366801;26;20028;-85
2024/04/20 09:47:39;;;;;;;1.48;1.20;;;;;;;7.85;65.13;98898.44;5377882;26;20031;-85
2024/04/20 09:50:12;;;;;;;6.32;1.58;;;;;;;7.56;64.23;98874.38;5366935;26;20008;-82
2024/04/20 09:53:05;;;;;;;12.85;1.42;;;;;;;7.45;62.50;98864.53;5378447;26;20097;-81
2024/04/20 09:55:33;;;;;;;1.45;1.15;;;;;;;7.66;60.79;98897.75;5370837;26;20461;-83
2024/04/20 09:58:01;;;;;;;1.35;1.00;;;;;;;7.56;60.45;98858.44;5376127;26;20008;-82
2024/04/20 10:00:31;;;;;;;1.13;1.02;;;;;;;7.57;59.06;98891.94;5374145;26;20015;-84
2024/04/20 10:02:58;;;;;;;1.25;0.80;;;;;;;6.81;58.00;98756.47;5378447;26;20008;-83
2024/04/20 10:05:25;;;;;;;2.45;0.70;;;;;;;7.98;59.78;98898.22;5380202;26;20410;-84
2024/04/20 10:07:51;;;;;;;1.13;0.93;;;;;;;7.61;56.14;98892.28;5380385;26;20344;-83
2024/04/20 10:10:17;;;;;;;1.33;1.08;;;;;;;7.67;57.99;98880.75;5350744;26;20077;-83
2024/04/20 10:12:43;;;;;;;3.05;1.00;;;;;;;7.84;58.78;98865.75;5380220;26;20444;-83
2024/04/20 10:15:10;;;;;;;0.88;0.88;;;;;;;7.29;56.74;98859.09;5382239;26;20003;-83
2024/04/20 10:17:36;;;;;;;4.25;0.80;;;;;;;7.63;57.96;98830.97;5377931;26;20000;-83
2024/04/20 10:20:01;;;;;;;1.40;0.90;;;;;;;7.64;57.65;98816.66;5383735;26;20055;-83
2024/04/20 10:22:27;;;;;;;1.13;1.00;;;;;;;8.21;56.75;98900.91;5345659;26;20107;-84
2024/04/20 10:24:58;;;;;;;3.45;0.82;;;;;;;7.76;56.59;98818.28;5373894;26;20000;-83
2024/04/20 10:27:27;;;;;;;2.20;1.02;;;;;;;8.29;56.53;98904.06;5377540;26;20451;-83
2024/04/20 10:30:07;;;;;;;1.40;0.60;;;;;;;7.82;54.45;98837.81;5377679;26;20054;-83
2024/04/20 10:32:32;;;;;;;2.67;0.88;;;;;;;7.99;55.81;98899.84;5382477;26;20011;-83
2024/04/20 10:35:05;;;;;;;1.90;1.13;;;;;;;8.33;58.80;98869.81;5384977;26;19996;-84
2024/04/20 10:37:31;;;;;;;1.13;1.02;;;;;;;8.40;57.25;98890.97;5408037;26;19996;-84
2024/04/20 10:40:09;;;;;;;1.85;0.82;;;;;;;8.26;54.68;98858.50;5355250;26;20000;-83
2024/04/20 10:42:35;;;;;;;1.77;0.88;;;;;;;8.47;56.85;98852.59;5376375;26;20070;-83
2024/04/20 10:45:06;;;;;;;3.50;1.10;;;;;;;8.63;54.53;98914.88;5376776;26;20016;-83
2024/04/20 10:47:33;;;;;;;2.70;0.90;;;;;;;8.72;58.15;98886.84;5345514;26;20067;-83
2024/04/20 10:49:58;;;;;;;2.35;0.88;;;;;;;8.80;57.40;98889.94;5348521;26;20008;-83
2024/04/20 10:52:26;;;;;;;0.98;0.95;;;;;;;8.55;56.91;98824.78;5381635;26;20000;-83
2024/04/20 10:54:51;;;;;;;1.60;0.80;;;;;;;8.85;56.80;98910.53;5383299;26;20015;-84
2024/04/20 10:57:17;;;;;;;0.80;0.60;;;;;;;8.50;53.60;98830.81;5377156;26;20001;-83
2024/04/20 10:59:45;;;;;;;3.58;0.88;;;;;;;8.87;52.96;98877.31;5352192;26;20000;-83
2024/04/20 11:02:14;;;;;;;0.80;0.80;;;;;;;8.95;51.18;98874.28;5383882;26;20011;-83
2024/04/20 11:04:41;;;;;;;0.63;0.50;;;;;;;9.19;53.31;98903.50;5388040;26;20087;-83
2024/04/20 11:07:06;;;;;;;0.90;0.70;;;;;;;9.47;52.93;98908.81;5382666;26;20356;-84
2024/04/20 11:09:32;;;;;;;0.70;0.70;;;;;;;9.25;50.88;98860.75;5381475;26;19996;-82
2024/04/20 11:12:00;;;;;;;0.95;0.93;;;;;;;9.48;50.89;98876.59;5383706;26;20089;-83
2024/04/20 11:14:26;;;;;;;1.95;1.00;;;;;;;9.81;51.29;98903.28;5378205;26;20011;-83
2024/04/20 11:16:52;;;;;;;0.70;0.70;;;;;;;9.37;49.96;98858.81;5345921;26;20019;-83
2024/04/20 11:19:19;;;;;;;1.33;0.80;;;;;;;9.65;48.87;98893.41;5380038;26;19996;-84
2024/04/20 11:21:44;;;;;;;0.63;0.63;;;;;;;9.59;53.31;98875.72;5387968;26;20440;-84
2024/04/20 11:24:10;;;;;;;1.35;0.85;;;;;;;9.23;53.38;98833.53;5382437;26;20007;-84
2024/04/20 11:26:35;;;;;;;1.17;1.08;;;;;;;9.29;51.79;98837.09;5365729;26;19997;-83
2024/04/20 11:29:01;;;;;;;1.17;0.55;;;;;;;9.47;52.72;98882.16;5325662;26;20319;-83
2024/04/20 11:31:26;;;;;;;0.60;0.60;;;;;;;9.46;52.77;98896.53;5354646;26;20008;-84
2024/04/20 11:33:52;;;;;;;1.20;1.10;;;;;;;9.50;52.41;98921.66;5385275;26;20020;-84
2024/04/20 11:36:18;;;;;;;0.90;0.88;;;;;;;9.41;52.26;98925.75;5381898;26;20024;-83